createdAt,value
2018-11-23T00:01:13.178Z,42.63
2018-11-23T00:03:41.462Z,39.53
2018-11-23T00:06:10.007Z,39.47
2018-11-23T00:08:38.286Z,39.13
2018-11-23T00:11:06.606Z,42.30
2018-11-23T00:13:34.994Z,42.50
2018-11-23T00:16:03.217Z,42.10
2018-11-23T00:18:31.537Z,40.73
2018-11-23T00:20:59.851Z,41.50
2018-11-23T00:23:28.140Z,37.57
2018-11-23T00:25:56.452Z,39.03
2018-11-23T00:28:24.710Z,41.63
2018-11-23T00:30:53.037Z,42.47
2018-11-23T00:33:21.295Z,39.93
2018-11-23T00:35:49.555Z,46.00
2018-11-23T00:38:17.837Z,38.87
2018-11-23T00:40:46.090Z,39.63
2018-11-23T00:43:14.384Z,38.73
2018-11-23T00:45:43.125Z,40.40
2018-11-23T00:48:11.007Z,40.33
2018-11-23T00:50:39.282Z,40.17
2018-11-23T00:53:07.541Z,40.10
2018-11-23T00:55:35.882Z,40.97
2018-11-23T00:58:04.169Z,37.83
2018-11-23T01:00:33.444Z,38.07
2018-11-23T01:03:02.846Z,43.07
2018-11-23T01:05:31.165Z,38.87
2018-11-23T01:07:59.417Z,40.33
2018-11-23T01:10:28.531Z,38.83
2018-11-23T01:12:57.520Z,37.47
2018-11-23T01:15:25.811Z,44.17
2018-11-23T01:17:54.183Z,45.63
2018-11-23T01:20:24.574Z,43.17
2018-11-23T01:22:53.350Z,39.30
2018-11-23T01:25:22.524Z,39.97
2018-11-23T01:27:51.939Z,45.57
2018-11-23T01:30:22.001Z,43.80
2018-11-23T01:32:50.448Z,43.60
2018-11-23T01:35:18.753Z,40.67
2018-11-23T01:37:47.016Z,42.97
2018-11-23T01:40:16.760Z,45.07
2018-11-23T01:42:45.405Z,39.33
2018-11-23T01:45:14.210Z,39.80
2018-11-23T01:47:42.583Z,40.87
2018-11-23T01:50:12.998Z,45.30
2018-11-23T01:52:41.263Z,44.80
2018-11-23T01:55:10.732Z,39.90
2018-11-23T01:57:39.774Z,41.47
2018-11-23T02:00:10.605Z,42.27
2018-11-23T02:02:38.888Z,39.87
2018-11-23T02:05:07.518Z,42.17
2018-11-23T02:07:36.098Z,44.83
2018-11-23T02:10:04.878Z,43.60
2018-11-23T02:12:33.236Z,45.20
2018-11-23T02:15:01.534Z,44.07
2018-11-23T02:17:29.751Z,46.53
2018-11-23T02:19:58.062Z,46.97
2018-11-23T02:22:27.178Z,40.57
2018-11-23T02:24:55.381Z,40.23
2018-11-23T02:27:23.922Z,45.93
2018-11-23T02:29:52.229Z,47.30
2018-11-23T02:32:20.492Z,47.83
2018-11-23T02:34:48.801Z,42.37
2018-11-23T02:37:17.028Z,41.43
2018-11-23T02:39:45.257Z,42.03
2018-11-23T02:42:13.563Z,43.13
2018-11-23T02:44:41.794Z,40.97
2018-11-23T02:47:10.048Z,43.13
2018-11-23T02:49:38.505Z,45.27
2018-11-23T02:52:06.807Z,46.60
2018-11-23T02:54:35.187Z,43.60
2018-11-23T02:57:04.980Z,43.17
2018-11-23T02:59:34.180Z,40.70
2018-11-23T03:02:02.537Z,39.13
2018-11-23T03:04:30.814Z,43.13
2018-11-23T03:06:59.184Z,41.63
2018-11-23T03:09:27.519Z,44.17
2018-11-23T03:11:55.799Z,42.70
2018-11-23T03:14:24.141Z,45.17
2018-11-23T03:16:53.522Z,42.07
2018-11-23T03:19:21.796Z,40.83
2018-11-23T03:21:50.161Z,41.07
2018-11-23T03:24:18.397Z,43.50
2018-11-23T03:26:46.640Z,41.73
2018-11-23T03:29:14.921Z,47.03
2018-11-23T03:31:43.237Z,44.83
2018-11-23T03:34:11.531Z,45.97
2018-11-23T03:36:39.771Z,41.67
2018-11-23T03:39:09.182Z,45.83
2018-11-23T03:41:37.464Z,44.70
2018-11-23T03:44:06.059Z,43.07
2018-11-23T03:46:34.347Z,45.57
2018-11-23T03:49:02.867Z,46.43
2018-11-23T03:51:31.179Z,45.90
2018-11-23T03:53:59.429Z,41.40
2018-11-23T03:56:27.686Z,43.30
2018-11-23T03:58:55.945Z,44.40
2018-11-23T04:01:24.213Z,45.37
2018-11-23T04:03:52.715Z,46.30
2018-11-23T04:06:20.993Z,41.80
2018-11-23T04:08:49.306Z,48.30
2018-11-23T04:11:17.615Z,45.53
2018-11-23T04:13:45.917Z,47.03
2018-11-23T04:16:14.274Z,44.90
2018-11-23T04:18:42.588Z,47.47
2018-11-23T04:21:10.891Z,47.03
2018-11-23T04:23:39.154Z,42.17
2018-11-23T04:26:07.444Z,46.53
2018-11-23T04:28:35.701Z,44.27
2018-11-23T04:31:04.029Z,49.80
2018-11-23T04:33:32.305Z,44.77
2018-11-23T04:36:00.606Z,47.20
2018-11-23T04:38:28.883Z,45.73
2018-11-23T04:40:57.167Z,42.40
2018-11-23T04:43:25.471Z,48.47
2018-11-23T04:45:53.704Z,49.00
2018-11-23T04:48:21.979Z,45.90
2018-11-23T04:50:50.293Z,42.60
2018-11-23T04:53:18.613Z,46.53
2018-11-23T04:55:47.200Z,43.37
2018-11-23T04:58:15.489Z,49.27
2018-11-23T05:00:43.783Z,49.10
2018-11-23T05:03:12.046Z,44.10
2018-11-23T05:05:40.303Z,42.37
2018-11-23T05:08:08.597Z,40.97
2018-11-23T05:10:36.910Z,50.80
2018-11-23T05:13:05.496Z,45.27
2018-11-23T05:15:33.754Z,41.33
2018-11-23T05:18:02.010Z,46.23
2018-11-23T05:20:30.237Z,44.00
2018-11-23T05:22:58.474Z,48.40
2018-11-23T05:25:26.759Z,43.73
2018-11-23T05:27:55.004Z,43.13
2018-11-23T05:30:23.273Z,45.30
2018-11-23T05:32:51.491Z,45.20
2018-11-23T05:35:20.079Z,47.17
2018-11-23T05:37:48.309Z,46.63
2018-11-23T05:40:17.800Z,40.73
2018-11-23T05:42:46.065Z,48.40
2018-11-23T05:45:15.854Z,68.40
2018-11-23T05:47:45.069Z,70.40
2018-11-23T05:50:16.830Z,60.73
2018-11-23T05:53:09.324Z,49.40
2018-11-23T05:55:49.660Z,54.43
2018-11-23T06:11:16.574Z,48.83
2018-11-23T06:19:38.456Z,43.77
2018-11-23T06:25:16.230Z,45.10
2018-11-23T06:27:44.889Z,51.37
2018-11-23T06:30:13.853Z,44.47
2018-11-23T06:32:55.376Z,47.90
2018-11-23T06:35:24.203Z,50.27
2018-11-23T06:37:53.184Z,44.53
2018-11-23T06:49:32.484Z,42.47
2018-11-23T06:52:06.829Z,50.40
2018-11-23T06:57:24.860Z,40.67
2018-11-23T07:00:08.641Z,44.83
2018-11-23T07:02:39.104Z,44.70
2018-11-23T07:05:09.993Z,48.97
2018-11-23T07:07:40.112Z,44.67
2018-11-23T07:10:12.175Z,44.70
2018-11-23T07:12:41.345Z,45.27
2018-11-23T07:17:25.226Z,40.50
2018-11-23T07:20:03.330Z,46.03
2018-11-23T07:22:32.214Z,44.27
2018-11-23T07:25:03.823Z,46.07
2018-11-23T07:27:34.281Z,47.43
2018-11-23T07:30:08.170Z,48.90
2018-11-23T07:32:37.290Z,46.53
2018-11-23T07:35:15.080Z,44.70
2018-11-23T07:37:45.237Z,47.67
2018-11-23T07:40:30.860Z,46.63
2018-11-23T07:43:07.094Z,48.23
2018-11-23T07:45:38.333Z,47.40
2018-11-23T07:48:07.903Z,48.93
2018-11-23T07:51:17.857Z,42.70
2018-11-23T07:54:57.752Z,45.57
2018-11-23T07:57:32.848Z,44.50
2018-11-23T08:00:01.496Z,42.83
2018-11-23T08:05:06.117Z,39.70
2018-11-23T08:07:38.652Z,41.93
2018-11-23T08:10:12.531Z,48.37
2018-11-23T08:12:46.616Z,49.70
2018-11-23T08:15:19.016Z,46.63
2018-11-23T08:17:47.731Z,43.43
2018-11-23T08:20:18.848Z,47.60
2018-11-23T08:22:49.287Z,43.40
2018-11-23T08:25:20.012Z,48.83
2018-11-23T08:27:49.574Z,41.23
2018-11-23T08:30:22.221Z,43.97
2018-11-23T08:32:51.343Z,44.23
2018-11-23T08:35:19.946Z,45.10
2018-11-23T08:37:48.631Z,52.83
2018-11-23T08:40:22.513Z,51.70
2018-11-23T08:42:53.438Z,53.70
2018-11-23T08:45:23.381Z,52.03
2018-11-23T08:47:52.125Z,50.30
2018-11-23T08:50:28.555Z,44.57
2018-11-23T08:52:57.134Z,38.50
2018-11-23T08:55:28.639Z,38.33
2018-11-23T08:57:58.286Z,39.33
2018-11-23T09:00:29.547Z,46.60
2018-11-23T09:02:59.749Z,39.33
2018-11-23T09:05:28.695Z,41.33
2018-11-23T09:07:57.696Z,38.73
2018-11-23T09:10:29.239Z,42.83
2018-11-23T09:12:59.884Z,40.27
2018-11-23T09:15:33.988Z,36.80
2018-11-23T09:18:02.571Z,42.10
2018-11-23T09:20:31.015Z,44.67
2018-11-23T09:22:59.480Z,40.20
2018-11-23T09:25:28.025Z,43.30
2018-11-23T09:27:56.488Z,40.80
2018-11-23T09:30:27.816Z,40.27
2018-11-23T09:32:57.513Z,40.43
2018-11-23T09:35:26.657Z,41.10
2018-11-23T09:37:55.341Z,41.47
2018-11-23T09:40:25.363Z,46.23
2018-11-23T09:42:55.771Z,37.87
2018-11-23T09:45:27.874Z,37.67
2018-11-23T09:47:58.083Z,36.00
2018-11-23T09:50:27.240Z,37.30
2018-11-23T09:52:57.259Z,41.33
2018-11-23T09:55:29.657Z,31.87
2018-11-23T09:58:15.134Z,38.93
2018-11-23T10:00:44.561Z,36.00
2018-11-23T10:03:13.002Z,34.83
2018-11-23T10:05:41.669Z,35.33
2018-11-23T10:08:11.699Z,36.07
2018-11-23T10:10:41.758Z,35.23
2018-11-23T10:13:17.399Z,36.33
2018-11-23T10:15:46.699Z,36.23
2018-11-23T10:20:56.352Z,35.20
2018-11-23T10:23:25.189Z,29.50
2018-11-23T10:25:53.833Z,31.60
2018-11-23T10:28:23.379Z,35.07
2018-11-23T10:30:52.065Z,35.23
2018-11-23T10:33:21.244Z,34.37
2018-11-23T10:35:50.021Z,32.17
2018-11-23T10:38:19.291Z,30.97
2018-11-23T10:40:49.198Z,31.80
2018-11-23T10:43:17.869Z,32.13
2018-11-23T10:45:46.497Z,31.80
2018-11-23T10:48:15.233Z,34.53
2018-11-23T10:50:43.825Z,33.13
2018-11-23T10:53:17.516Z,30.33
2018-11-23T10:55:46.872Z,30.63
2018-11-23T10:58:15.402Z,34.90
2018-11-23T11:00:49.386Z,32.33
2018-11-23T11:03:33.630Z,31.80
2018-11-23T11:08:56.383Z,31.73
2018-11-23T11:11:24.925Z,34.60
2018-11-23T11:13:53.737Z,30.40
2018-11-23T11:16:22.473Z,31.70
2018-11-23T11:19:03.654Z,30.27
2018-11-23T11:21:32.518Z,30.47
2018-11-23T11:24:00.981Z,32.67
2018-11-23T11:26:29.804Z,34.60
2018-11-23T11:28:58.610Z,33.77
2018-11-23T11:31:28.094Z,29.23
2018-11-23T11:33:56.892Z,31.60
2018-11-23T11:36:25.461Z,29.87
2018-11-23T11:38:55.362Z,32.10
2018-11-23T11:41:23.944Z,35.17
2018-11-23T11:43:52.971Z,37.27
2018-11-23T11:46:21.623Z,36.27
2018-11-23T11:48:50.157Z,33.43
2018-11-23T11:51:18.881Z,29.30
2018-11-23T11:53:47.077Z,34.23
2018-11-23T11:56:15.285Z,31.43
2018-11-23T11:58:43.489Z,31.10
2018-11-23T12:01:11.662Z,30.53
2018-11-23T12:03:39.887Z,29.30
2018-11-23T12:06:08.130Z,31.13
2018-11-23T12:08:36.339Z,28.10
2018-11-23T12:11:05.208Z,29.67
2018-11-23T12:13:33.444Z,30.13
2018-11-23T12:16:01.660Z,29.93
2018-11-23T12:18:29.900Z,28.90
2018-11-23T12:20:58.120Z,28.70
2018-11-23T12:23:26.381Z,29.07
2018-11-23T12:25:54.852Z,29.40
2018-11-23T12:28:23.027Z,28.33
2018-11-23T12:30:51.275Z,28.97
2018-11-23T12:33:19.455Z,26.90
2018-11-23T12:35:47.640Z,27.97
2018-11-23T12:38:15.788Z,26.97
2018-11-23T12:40:43.975Z,29.40
2018-11-23T12:43:12.140Z,28.07
2018-11-23T12:45:40.345Z,27.00
2018-11-23T12:48:08.552Z,26.30
2018-11-23T12:50:36.747Z,26.20
2018-11-23T12:53:06.467Z,28.00
2018-11-23T12:55:33.386Z,28.27
2018-11-23T12:58:01.609Z,28.97
2018-11-23T13:00:30.284Z,28.23
2018-11-23T13:03:01.726Z,31.97
2018-11-23T13:05:30.916Z,29.83
2018-11-23T13:08:00.495Z,32.63
2018-11-23T13:10:29.096Z,29.30
2018-11-23T13:12:57.971Z,29.63
2018-11-23T13:15:26.176Z,30.53
2018-11-23T13:17:54.752Z,29.87
2018-11-23T13:20:22.988Z,27.23
2018-11-23T13:22:51.186Z,27.07
2018-11-23T13:25:20.900Z,26.63
2018-11-23T13:27:49.140Z,28.10
2018-11-23T13:30:19.744Z,28.90
2018-11-23T13:32:48.051Z,28.77
2018-11-23T13:35:17.360Z,26.40
2018-11-23T13:37:45.543Z,29.00
2018-11-23T13:40:15.451Z,30.63
2018-11-23T13:42:44.043Z,27.03
2018-11-23T13:45:16.606Z,27.13
2018-11-23T13:47:44.847Z,29.67
2018-11-23T13:50:14.407Z,26.93
2018-11-23T13:52:43.514Z,27.93
2018-11-23T13:55:11.731Z,28.30
2018-11-23T13:57:40.193Z,28.93
2018-11-23T14:00:14.411Z,28.97
2018-11-23T14:02:42.877Z,27.97
2018-11-23T14:05:12.658Z,29.10
2018-11-23T14:07:41.343Z,31.77
2018-11-23T14:10:11.477Z,30.73
2018-11-23T14:12:39.796Z,29.20
2018-11-23T14:15:10.768Z,33.33
2018-11-23T14:17:39.101Z,36.00
2018-11-23T14:20:08.886Z,33.10
2018-11-23T14:22:37.395Z,35.80
2018-11-23T14:25:05.957Z,38.03
2018-11-23T14:27:34.252Z,32.33
2018-11-23T14:30:02.485Z,31.53
2018-11-23T14:32:30.679Z,30.03
2018-11-23T14:34:58.922Z,32.67
2018-11-23T14:37:27.155Z,46.93
2018-11-23T14:39:55.387Z,31.03
2018-11-23T14:42:23.632Z,33.37
2018-11-23T14:44:51.842Z,33.17
2018-11-23T14:47:20.038Z,29.57
2018-11-23T14:49:48.261Z,27.23
2018-11-23T14:52:16.477Z,29.93
2018-11-23T14:54:44.707Z,31.27
2018-11-23T14:57:12.919Z,28.10
2018-11-23T14:59:41.127Z,32.70
2018-11-23T15:02:09.351Z,35.40
2018-11-23T15:04:37.609Z,30.93
2018-11-23T15:07:05.831Z,29.27
2018-11-23T15:09:34.017Z,29.83
2018-11-23T15:12:02.389Z,33.67
2018-11-23T15:14:30.660Z,27.80
2018-11-23T15:16:58.956Z,25.27
2018-11-23T15:19:27.353Z,26.80
2018-11-23T15:21:55.617Z,27.17
2018-11-23T15:24:23.850Z,27.30
2018-11-23T15:26:52.197Z,30.73
2018-11-23T15:29:20.399Z,37.57
2018-11-23T15:31:48.839Z,28.70
2018-11-23T15:34:17.249Z,27.67
2018-11-23T15:36:45.511Z,24.60
2018-11-23T15:39:14.088Z,25.50
2018-11-23T15:41:42.329Z,27.17
2018-11-23T15:44:10.561Z,26.53
2018-11-23T15:46:38.815Z,23.90
2018-11-23T15:49:07.114Z,25.87
2018-11-23T15:51:35.576Z,25.50
2018-11-23T15:54:04.053Z,23.53
2018-11-23T15:56:32.402Z,27.07
2018-11-23T15:59:00.857Z,26.43
2018-11-23T16:01:29.098Z,26.77
2018-11-23T16:03:57.323Z,53.47
2018-11-23T16:06:25.556Z,87.70
2018-11-23T16:08:53.780Z,111.07
2018-11-23T16:11:22.052Z,30.67
2018-11-23T16:13:50.554Z,24.73
2018-11-23T16:16:18.890Z,25.10
2018-11-23T16:18:47.159Z,24.27
2018-11-23T16:21:15.359Z,26.80
2018-11-23T16:23:43.610Z,27.87
2018-11-23T16:26:11.833Z,23.67
2018-11-23T16:28:40.077Z,24.40
2018-11-23T16:31:08.288Z,27.43
2018-11-23T16:33:36.475Z,25.33
2018-11-23T16:36:04.725Z,26.63
2018-11-23T16:38:32.948Z,26.93
2018-11-23T16:41:01.148Z,24.40
2018-11-23T16:43:29.368Z,25.47
2018-11-23T16:45:57.625Z,27.50
2018-11-23T16:48:25.824Z,24.57
2018-11-23T16:50:54.004Z,30.63
2018-11-23T16:53:22.206Z,46.77
2018-11-23T16:55:50.433Z,39.90
2018-11-23T16:58:18.634Z,42.40
2018-11-23T17:00:47.831Z,32.00
2018-11-23T17:03:17.730Z,27.13
2018-11-23T17:05:47.443Z,27.23
2018-11-23T17:08:15.770Z,27.63
2018-11-23T17:10:44.099Z,25.70
2018-11-23T17:13:12.293Z,32.10
2018-11-23T17:15:40.516Z,28.70
2018-11-23T17:18:09.136Z,30.57
2018-11-23T17:20:37.944Z,27.60
2018-11-23T17:23:07.229Z,30.70
2018-11-23T17:25:35.432Z,30.17
2018-11-23T17:28:05.219Z,27.10
2018-11-23T17:30:34.306Z,30.43
2018-11-23T17:33:02.553Z,25.77
2018-11-23T17:35:30.900Z,30.07
2018-11-23T17:37:59.128Z,32.07
2018-11-23T17:40:29.064Z,31.20
2018-11-23T17:42:58.501Z,31.47
2018-11-23T17:45:27.787Z,29.63
2018-11-23T17:47:56.130Z,32.50
2018-11-23T17:50:26.992Z,36.13
2018-11-23T17:52:55.445Z,31.77
2018-11-23T17:55:23.877Z,33.80
2018-11-23T17:57:53.130Z,35.80
2018-11-23T18:00:24.678Z,35.77
2018-11-23T18:02:53.661Z,32.73
2018-11-23T18:05:23.016Z,32.43
2018-11-23T18:07:51.496Z,31.63
2018-11-23T18:10:21.159Z,30.13
2018-11-23T18:12:49.809Z,31.90
2018-11-23T18:15:20.138Z,31.67
2018-11-23T18:17:49.428Z,34.57
2018-11-23T18:20:18.882Z,31.63
2018-11-23T18:22:47.740Z,54.37
2018-11-23T18:25:18.378Z,33.27
2018-11-23T18:27:47.131Z,31.13
2018-11-23T18:30:15.370Z,31.80
2018-11-23T18:32:43.566Z,27.40
2018-11-23T18:35:13.165Z,28.80
2018-11-23T18:37:41.469Z,29.53
2018-11-23T18:40:12.884Z,27.83
2018-11-23T18:42:41.197Z,28.13
2018-11-23T18:45:10.805Z,26.73
2018-11-23T18:47:39.100Z,27.43
2018-11-23T18:50:10.424Z,28.60
2018-11-23T18:52:39.581Z,28.10
2018-11-23T18:55:09.221Z,29.00
2018-11-23T18:57:37.669Z,29.97
2018-11-23T19:00:11.182Z,29.60
2018-11-23T19:02:39.580Z,28.93
2018-11-23T19:05:10.849Z,31.60
2018-11-23T19:07:39.392Z,28.17
2018-11-23T19:10:09.491Z,29.30
2018-11-23T19:12:37.861Z,26.50
2018-11-23T19:15:08.431Z,27.37
2018-11-23T19:17:36.892Z,28.53
2018-11-23T19:20:11.521Z,30.27
2018-11-23T19:22:39.928Z,29.13
2018-11-23T19:25:08.422Z,28.83
2018-11-23T19:27:36.785Z,26.23
2018-11-23T19:30:07.547Z,29.30
2018-11-23T19:32:36.456Z,129.23
2018-11-23T19:35:05.224Z,43.60
2018-11-23T19:37:33.691Z,36.47
2018-11-23T19:40:04.501Z,49.57
2018-11-23T19:42:32.994Z,41.90
2018-11-23T19:45:01.755Z,44.03
2018-11-23T19:47:30.134Z,42.73
2018-11-23T19:49:58.495Z,49.40
2018-11-23T19:52:26.767Z,56.73
2018-11-23T19:54:55.208Z,64.60
2018-11-23T19:57:24.217Z,58.87
2018-11-23T19:59:52.760Z,43.37
2018-11-23T20:02:21.245Z,58.27
2018-11-23T20:04:49.773Z,62.40
2018-11-23T20:07:18.058Z,32.97
2018-11-23T20:09:46.869Z,42.27
2018-11-23T20:12:15.516Z,46.90
2018-11-23T20:14:43.851Z,36.87
2018-11-23T20:17:12.171Z,35.67
2018-11-23T20:19:40.774Z,36.07
2018-11-23T20:22:09.049Z,37.73
2018-11-23T20:24:37.393Z,48.07
2018-11-23T20:27:06.337Z,44.73
2018-11-23T20:29:35.425Z,45.77
2018-11-23T20:32:03.199Z,34.00
2018-11-23T20:34:31.658Z,34.67
2018-11-23T20:36:59.933Z,30.60
2018-11-23T20:39:28.358Z,45.57
2018-11-23T20:41:56.725Z,68.33
2018-11-23T20:44:25.751Z,84.47
2018-11-23T20:46:54.398Z,59.20
2018-11-23T20:49:23.222Z,41.90
2018-11-23T20:51:51.776Z,34.53
2018-11-23T20:54:20.117Z,33.53
2018-11-23T20:56:48.443Z,32.77
2018-11-23T20:59:16.961Z,31.13
2018-11-23T21:01:45.368Z,35.27
2018-11-23T21:04:13.672Z,30.47
2018-11-23T21:06:41.931Z,29.80
2018-11-23T21:09:10.693Z,29.80
2018-11-23T21:11:39.011Z,32.90
2018-11-23T21:14:07.297Z,32.90
2018-11-23T21:16:35.653Z,30.93
2018-11-23T21:19:04.074Z,29.57
2018-11-23T21:21:32.452Z,29.80
2018-11-23T21:24:00.791Z,34.87
2018-11-23T21:26:29.122Z,32.27
2018-11-23T21:28:57.576Z,31.60
2018-11-23T21:31:25.990Z,31.67
2018-11-23T21:33:54.353Z,34.37
2018-11-23T21:36:22.707Z,28.87
2018-11-23T21:38:51.079Z,33.23
2018-11-23T21:41:19.417Z,33.37
2018-11-23T21:43:47.663Z,37.10
2018-11-23T21:46:16.018Z,40.10
2018-11-23T21:48:44.413Z,35.73
2018-11-23T21:51:12.797Z,39.80
2018-11-23T21:53:41.131Z,41.03
2018-11-23T21:56:09.747Z,35.43
2018-11-23T21:58:37.920Z,38.70
2018-11-23T22:01:06.358Z,32.43
2018-11-23T22:03:34.676Z,31.60
2018-11-23T22:06:03.039Z,33.57
2018-11-23T22:08:31.386Z,33.87
2018-11-23T22:10:59.704Z,31.60
2018-11-23T22:13:28.048Z,30.67
2018-11-23T22:15:56.452Z,30.17
2018-11-23T22:18:24.830Z,32.37
2018-11-23T22:20:53.294Z,29.60
2018-11-23T22:23:21.629Z,31.70
2018-11-23T22:25:50.052Z,48.87
2018-11-23T22:28:18.479Z,56.53
2018-11-23T22:30:46.938Z,60.70
2018-11-23T22:33:15.321Z,58.37
2018-11-23T22:35:48.102Z,49.03
2018-11-23T22:38:12.219Z,38.13
2018-11-23T22:40:40.550Z,42.20
2018-11-23T22:43:08.906Z,41.40
2018-11-23T22:45:37.207Z,39.90
2018-11-23T22:48:05.584Z,37.50
2018-11-23T22:50:34.011Z,34.80
2018-11-23T22:53:02.509Z,37.53
2018-11-23T22:55:30.982Z,35.90
2018-11-23T22:57:59.494Z,34.30
2018-11-23T23:00:33.334Z,33.87
2018-11-23T23:03:01.745Z,31.67
2018-11-23T23:05:30.084Z,31.63
2018-11-23T23:07:58.390Z,31.97
2018-11-23T23:10:26.777Z,30.23
2018-11-23T23:12:55.278Z,31.53
2018-11-23T23:15:23.610Z,31.53
2018-11-23T23:17:51.948Z,32.67
2018-11-23T23:20:21.738Z,29.07
2018-11-23T23:22:50.133Z,30.43
2018-11-23T23:25:18.535Z,27.60
2018-11-23T23:27:46.863Z,33.63
2018-11-23T23:30:16.261Z,64.50
2018-11-23T23:32:47.544Z,33.40
2018-11-23T23:35:18.300Z,39.53
2018-11-23T23:37:46.861Z,29.43
2018-11-23T23:40:16.267Z,43.17
2018-11-23T23:42:44.780Z,35.17
2018-11-23T23:45:14.934Z,31.37
2018-11-23T23:47:43.225Z,32.10
2018-11-23T23:50:12.743Z,35.30
2018-11-23T23:52:41.014Z,32.50
2018-11-23T23:55:09.905Z,30.07
2018-11-23T23:57:38.924Z,32.17
